sensor_id;sensor_type;location;lat;lon;timestamp;temperature;humidity
29577;DHT22;16509;53.862;10.672;2023-08-20T00:00:07;19.30;99.90
29577;DHT22;16509;53.862;10.672;2023-08-20T00:02:35;19.30;99.90
29577;DHT22;16509;53.862;10.672;2023-08-20T00:05:02;19.30;99.90
29577;DHT22;16509;53.862;10.672;2023-08-20T00:07:30;19.20;99.90
29577;DHT22;16509;53.862;10.672;2023-08-20T00:09:56;19.20;99.90
29577;DHT22;16509;53.862;10.672;2023-08-20T00:12:21;19.20;99.90
29577;DHT22;16509;53.862;10.672;2023-08-20T00:15:02;19.20;99.90
29577;DHT22;16509;53.862;10.672;2023-08-20T00:17:38;19.10;99.90
29577;DHT22;16509;53.862;10.672;2023-08-20T00:20:05;19.10;99.90
29577;DHT22;16509;53.862;10.672;2023-08-20T00:22:36;19.10;99.90
29577;DHT22;16509;53.862;10.672;2023-08-20T00:25:02;19.10;99.90
29577;DHT22;16509;53.862;10.672;2023-08-20T00:27:29;19.00;99.90
29577;DHT22;16509;53.862;10.672;2023-08-20T00:29:55;18.80;99.90
29577;DHT22;16509;53.862;10.672;2023-08-20T00:32:20;19.90;99.90
29577;DHT22;16509;53.862;10.672;2023-08-20T00:34:46;19.20;99.90
29577;DHT22;16509;53.862;10.672;2023-08-20T00:37:11;18.90;99.90
29577;DHT22;16509;53.862;10.672;2023-08-20T00:39:37;18.60;99.90
29577;DHT22;16509;53.862;10.672;2023-08-20T00:42:03;19.60;99.90
29577;DHT22;16509;53.862;10.672;2023-08-20T00:44:30;18.90;99.90
29577;DHT22;16509;53.862;10.672;2023-08-20T00:46:56;19.30;99.90
29577;DHT22;16509;53.862;10.672;2023-08-20T00:49:22;18.90;99.90
29577;DHT22;16509;53.862;10.672;2023-08-20T00:51:48;19.00;99.90
29577;DHT22;16509;53.862;10.672;2023-08-20T00:54:14;18.90;99.90
29577;DHT22;16509;53.862;10.672;2023-08-20T00:56:40;18.80;99.90
29577;DHT22;16509;53.862;10.672;2023-08-20T00:59:06;19.00;99.90
29577;DHT22;16509;53.862;10.672;2023-08-20T01:01:31;18.90;99.90
29577;DHT22;16509;53.862;10.672;2023-08-20T01:03:57;20.00;99.90
29577;DHT22;16509;53.862;10.672;2023-08-20T01:06:53;19.30;99.90
29577;DHT22;16509;53.862;10.672;2023-08-20T01:09:31;18.80;99.90
29577;DHT22;16509;53.862;10.672;2023-08-20T01:12:02;19.00;99.90
29577;DHT22;16509;53.862;10.672;2023-08-20T01:14:28;18.70;99.90
29577;DHT22;16509;53.862;10.672;2023-08-20T01:16:53;18.60;99.90
29577;DHT22;16509;53.862;10.672;2023-08-20T01:19:21;18.50;99.90
29577;DHT22;16509;53.862;10.672;2023-08-20T01:27:39;18.40;99.90
29577;DHT22;16509;53.862;10.672;2023-08-20T01:30:08;19.10;99.90
29577;DHT22;16509;53.862;10.672;2023-08-20T01:32:35;18.30;99.90
29577;DHT22;16509;53.862;10.672;2023-08-20T01:35:02;18.30;99.90
29577;DHT22;16509;53.862;10.672;2023-08-20T01:37:28;18.20;99.90
29577;DHT22;16509;53.862;10.672;2023-08-20T01:39:53;20.40;99.90
29577;DHT22;16509;53.862;10.672;2023-08-20T01:42:19;18.40;99.90
29577;DHT22;16509;53.862;10.672;2023-08-20T01:44:45;18.10;99.90
29577;DHT22;16509;53.862;10.672;2023-08-20T01:47:10;18.70;99.90
29577;DHT22;16509;53.862;10.672;2023-08-20T01:49:36;18.90;99.90
29577;DHT22;16509;53.862;10.672;2023-08-20T01:52:01;18.00;99.90
29577;DHT22;16509;53.862;10.672;2023-08-20T01:54:27;18.00;99.90
29577;DHT22;16509;53.862;10.672;2023-08-20T01:56:54;18.70;99.90
29577;DHT22;16509;53.862;10.672;2023-08-20T01:59:21;17.90;99.90
29577;DHT22;16509;53.862;10.672;2023-08-20T02:01:47;17.90;99.90
29577;DHT22;16509;53.862;10.672;2023-08-20T02:04:13;18.10;99.90
29577;DHT22;16509;53.862;10.672;2023-08-20T02:06:38;18.40;99.90
29577;DHT22;16509;53.862;10.672;2023-08-20T02:09:04;17.80;99.90
29577;DHT22;16509;53.862;10.672;2023-08-20T02:11:29;17.70;99.90
29577;DHT22;16509;53.862;10.672;2023-08-20T02:13:58;17.70;99.90
29577;DHT22;16509;53.862;10.672;2023-08-20T02:16:23;18.60;99.90
29577;DHT22;16509;53.862;10.672;2023-08-20T02:18:49;17.60;99.90
29577;DHT22;16509;53.862;10.672;2023-08-20T02:21:15;19.60;99.90
29577;DHT22;16509;53.862;10.672;2023-08-20T02:23:40;18.00;99.90
29577;DHT22;16509;53.862;10.672;2023-08-20T02:26:06;17.50;99.90
29577;DHT22;16509;53.862;10.672;2023-08-20T02:28:31;17.50;99.90
29577;DHT22;16509;53.862;10.672;2023-08-20T02:30:57;17.50;99.90
29577;DHT22;16509;53.862;10.672;2023-08-20T02:33:22;19.40;99.90
29577;DHT22;16509;53.862;10.672;2023-08-20T02:35:48;20.30;99.90
29577;DHT22;16509;53.862;10.672;2023-08-20T02:38:13;17.60;99.90
29577;DHT22;16509;53.862;10.672;2023-08-20T02:40:43;20.50;99.90
29577;DHT22;16509;53.862;10.672;2023-08-20T02:43:09;17.30;99.90
29577;DHT22;16509;53.862;10.672;2023-08-20T02:45:40;19.10;99.90
29577;DHT22;16509;53.862;10.672;2023-08-20T02:51:13;17.20;99.90
29577;DHT22;16509;53.862;10.672;2023-08-20T02:53:39;17.30;99.90
29577;DHT22;16509;53.862;10.672;2023-08-20T02:56:04;17.20;99.90
29577;DHT22;16509;53.862;10.672;2023-08-20T02:58:30;17.10;99.90
29577;DHT22;16509;53.862;10.672;2023-08-20T03:00:55;17.10;99.90
29577;DHT22;16509;53.862;10.672;2023-08-20T03:03:22;17.10;99.90
29577;DHT22;16509;53.862;10.672;2023-08-20T03:05:49;17.00;99.90
29577;DHT22;16509;53.862;10.672;2023-08-20T03:08:14;17.00;99.90
29577;DHT22;16509;53.862;10.672;2023-08-20T03:10:40;17.70;99.90
29577;DHT22;16509;53.862;10.672;2023-08-20T03:13:05;17.00;99.90
29577;DHT22;16509;53.862;10.672;2023-08-20T03:15:31;17.00;99.90
29577;DHT22;16509;53.862;10.672;2023-08-20T03:17:57;17.70;99.90
29577;DHT22;16509;53.862;10.672;2023-08-20T03:20:22;16.90;99.90
29577;DHT22;16509;53.862;10.672;2023-08-20T03:22:48;16.90;99.90
29577;DHT22;16509;53.862;10.672;2023-08-20T03:25:14;16.90;99.90
29577;DHT22;16509;53.862;10.672;2023-08-20T03:27:39;16.90;99.90
29577;DHT22;16509;53.862;10.672;2023-08-20T03:30:06;17.00;99.90
29577;DHT22;16509;53.862;10.672;2023-08-20T03:32:31;16.90;99.90
29577;DHT22;16509;53.862;10.672;2023-08-20T03:34:57;16.90;99.90
29577;DHT22;16509;53.862;10.672;2023-08-20T03:37:25;17.00;99.90
29577;DHT22;16509;53.862;10.672;2023-08-20T03:39:50;18.10;99.90
29577;DHT22;16509;53.862;10.672;2023-08-20T03:42:16;16.90;99.90
29577;DHT22;16509;53.862;10.672;2023-08-20T03:44:41;16.90;99.90
29577;DHT22;16509;53.862;10.672;2023-08-20T03:47:07;16.90;99.90
29577;DHT22;16509;53.862;10.672;2023-08-20T03:49:33;16.70;99.90
29577;DHT22;16509;53.862;10.672;2023-08-20T03:51:58;17.20;99.90
29577;DHT22;16509;53.862;10.672;2023-08-20T03:54:24;16.90;99.90
29577;DHT22;16509;53.862;10.672;2023-08-20T03:56:49;16.90;99.90
29577;DHT22;16509;53.862;10.672;2023-08-20T03:59:15;16.90;99.90
29577;DHT22;16509;53.862;10.672;2023-08-20T04:01:40;18.90;99.90
29577;DHT22;16509;53.862;10.672;2023-08-20T04:04:06;16.80;99.90
29577;DHT22;16509;53.862;10.672;2023-08-20T04:06:31;16.80;99.90
29577;DHT22;16509;53.862;10.672;2023-08-20T04:08:57;16.80;99.90
29577;DHT22;16509;53.862;10.672;2023-08-20T04:11:22;16.90;99.90
29577;DHT22;16509;53.862;10.672;2023-08-20T04:13:48;16.80;99.90
29577;DHT22;16509;53.862;10.672;2023-08-20T04:16:14;16.80;99.90
29577;DHT22;16509;53.862;10.672;2023-08-20T04:18:40;17.20;99.90
29577;DHT22;16509;53.862;10.672;2023-08-20T04:21:06;16.90;99.90
29577;DHT22;16509;53.862;10.672;2023-08-20T04:23:32;16.90;99.90
29577;DHT22;16509;53.862;10.672;2023-08-20T04:25:58;16.90;99.90
29577;DHT22;16509;53.862;10.672;2023-08-20T04:28:24;18.30;99.90
29577;DHT22;16509;53.862;10.672;2023-08-20T04:30:52;16.90;99.90
29577;DHT22;16509;53.862;10.672;2023-08-20T04:33:19;17.00;99.90
29577;DHT22;16509;53.862;10.672;2023-08-20T04:35:45;18.50;99.90
29577;DHT22;16509;53.862;10.672;2023-08-20T04:38:10;17.00;99.90
29577;DHT22;16509;53.862;10.672;2023-08-20T04:40:36;17.00;99.90
29577;DHT22;16509;53.862;10.672;2023-08-20T04:43:01;17.00;99.90
29577;DHT22;16509;53.862;10.672;2023-08-20T04:45:27;17.00;99.90
29577;DHT22;16509;53.862;10.672;2023-08-20T04:47:52;17.10;99.90
29577;DHT22;16509;53.862;10.672;2023-08-20T04:50:18;17.30;99.90
29577;DHT22;16509;53.862;10.672;2023-08-20T04:52:43;17.80;99.90
29577;DHT22;16509;53.862;10.672;2023-08-20T04:55:10;18.00;99.90
29577;DHT22;16509;53.862;10.672;2023-08-20T04:57:36;17.20;99.90
29577;DHT22;16509;53.862;10.672;2023-08-20T05:00:02;17.30;99.90
29577;DHT22;16509;53.862;10.672;2023-08-20T05:02:28;17.20;99.90
29577;DHT22;16509;53.862;10.672;2023-08-20T05:04:54;17.20;99.90
29577;DHT22;16509;53.862;10.672;2023-08-20T05:07:21;17.30;99.90
29577;DHT22;16509;53.862;10.672;2023-08-20T05:09:47;17.70;99.90
29577;DHT22;16509;53.862;10.672;2023-08-20T05:12:12;17.30;99.90
29577;DHT22;16509;53.862;10.672;2023-08-20T05:14:38;17.30;99.90
29577;DHT22;16509;53.862;10.672;2023-08-20T05:17:03;17.30;99.90
29577;DHT22;16509;53.862;10.672;2023-08-20T05:19:29;17.40;99.90
29577;DHT22;16509;53.862;10.672;2023-08-20T05:21:54;17.40;99.90
29577;DHT22;16509;53.862;10.672;2023-08-20T05:24:24;17.50;99.90
29577;DHT22;16509;53.862;10.672;2023-08-20T05:27:09;18.10;99.90
29577;DHT22;16509;53.862;10.672;2023-08-20T05:29:36;17.60;99.90
29577;DHT22;16509;53.862;10.672;2023-08-20T05:32:02;17.60;99.90
29577;DHT22;16509;53.862;10.672;2023-08-20T05:34:28;17.50;99.90
29577;DHT22;16509;53.862;10.672;2023-08-20T05:36:53;17.60;99.90
29577;DHT22;16509;53.862;10.672;2023-08-20T05:39:19;17.50;99.90
29577;DHT22;16509;53.862;10.672;2023-08-20T05:41:44;17.50;99.90
29577;DHT22;16509;53.862;10.672;2023-08-20T05:44:10;17.50;99.90
29577;DHT22;16509;53.862;10.672;2023-08-20T05:46:36;17.50;99.90
29577;DHT22;16509;53.862;10.672;2023-08-20T05:49:01;17.60;99.90
29577;DHT22;16509;53.862;10.672;2023-08-20T05:51:27;17.60;99.90
29577;DHT22;16509;53.862;10.672;2023-08-20T05:53:53;17.60;99.90
29577;DHT22;16509;53.862;10.672;2023-08-20T05:56:18;17.60;99.90
29577;DHT22;16509;53.862;10.672;2023-08-20T05:58:44;18.00;99.90
29577;DHT22;16509;53.862;10.672;2023-08-20T06:01:09;17.70;99.90
29577;DHT22;16509;53.862;10.672;2023-08-20T06:03:35;18.30;99.90
29577;DHT22;16509;53.862;10.672;2023-08-20T06:06:00;17.70;99.90
29577;DHT22;16509;53.862;10.672;2023-08-20T06:08:26;17.70;99.90
29577;DHT22;16509;53.862;10.672;2023-08-20T06:10:51;16.50;99.90
29577;DHT22;16509;53.862;10.672;2023-08-20T06:13:17;18.00;99.90
29577;DHT22;16509;53.862;10.672;2023-08-20T06:15:43;17.70;99.90
29577;DHT22;16509;53.862;10.672;2023-08-20T06:18:09;18.90;99.90
29577;DHT22;16509;53.862;10.672;2023-08-20T06:20:34;17.70;99.90
29577;DHT22;16509;53.862;10.672;2023-08-20T06:23:00;17.70;99.90
29577;DHT22;16509;53.862;10.672;2023-08-20T06:25:25;18.60;99.90
29577;DHT22;16509;53.862;10.672;2023-08-20T06:27:51;17.60;99.90
29577;DHT22;16509;53.862;10.672;2023-08-20T06:30:16;17.70;99.90
29577;DHT22;16509;53.862;10.672;2023-08-20T06:32:46;17.70;99.90
29577;DHT22;16509;53.862;10.672;2023-08-20T06:35:11;17.80;99.90
29577;DHT22;16509;53.862;10.672;2023-08-20T06:37:38;17.90;99.90
29577;DHT22;16509;53.862;10.672;2023-08-20T06:40:05;17.90;99.90
29577;DHT22;16509;53.862;10.672;2023-08-20T06:42:31;17.90;99.90
29577;DHT22;16509;53.862;10.672;2023-08-20T06:44:56;18.00;99.90
29577;DHT22;16509;53.862;10.672;2023-08-20T06:47:22;18.00;99.90
29577;DHT22;16509;53.862;10.672;2023-08-20T06:49:49;18.20;99.90
29577;DHT22;16509;53.862;10.672;2023-08-20T06:52:14;18.40;99.90
29577;DHT22;16509;53.862;10.672;2023-08-20T06:54:40;18.90;99.90
29577;DHT22;16509;53.862;10.672;2023-08-20T06:57:05;20.30;99.90
29577;DHT22;16509;53.862;10.672;2023-08-20T06:59:31;18.10;99.90
29577;DHT22;16509;53.862;10.672;2023-08-20T07:01:56;18.40;99.90
29577;DHT22;16509;53.862;10.672;2023-08-20T07:04:22;18.30;99.90
29577;DHT22;16509;53.862;10.672;2023-08-20T07:06:47;18.40;99.90
29577;DHT22;16509;53.862;10.672;2023-08-20T07:09:13;18.40;99.90
29577;DHT22;16509;53.862;10.672;2023-08-20T07:11:38;18.40;99.90
29577;DHT22;16509;53.862;10.672;2023-08-20T07:14:04;18.50;99.90
29577;DHT22;16509;53.862;10.672;2023-08-20T07:16:29;20.20;99.90
29577;DHT22;16509;53.862;10.672;2023-08-20T07:18:55;20.70;99.90
29577;DHT22;16509;53.862;10.672;2023-08-20T07:21:20;19.50;99.90
29577;DHT22;16509;53.862;10.672;2023-08-20T07:23:46;18.80;99.90
29577;DHT22;16509;53.862;10.672;2023-08-20T07:26:11;20.10;99.90
29577;DHT22;16509;53.862;10.672;2023-08-20T07:28:37;20.50;99.90
29577;DHT22;16509;53.862;10.672;2023-08-20T07:31:22;18.90;99.90
29577;DHT22;16509;53.862;10.672;2023-08-20T07:33:49;19.00;99.90
29577;DHT22;16509;53.862;10.672;2023-08-20T07:36:15;21.70;99.90
29577;DHT22;16509;53.862;10.672;2023-08-20T07:38:41;20.90;99.90
29577;DHT22;16509;53.862;10.672;2023-08-20T07:41:11;19.40;99.90
29577;DHT22;16509;53.862;10.672;2023-08-20T07:43:38;19.50;99.90
29577;DHT22;16509;53.862;10.672;2023-08-20T07:46:05;19.50;99.90
29577;DHT22;16509;53.862;10.672;2023-08-20T07:48:31;19.20;99.90
29577;DHT22;16509;53.862;10.672;2023-08-20T07:50:56;20.60;99.90
29577;DHT22;16509;53.862;10.672;2023-08-20T07:53:22;20.60;99.90
29577;DHT22;16509;53.862;10.672;2023-08-20T07:55:47;20.10;99.90
29577;DHT22;16509;53.862;10.672;2023-08-20T07:58:13;21.60;99.90
29577;DHT22;16509;53.862;10.672;2023-08-20T08:00:38;20.60;99.90
29577;DHT22;16509;53.862;10.672;2023-08-20T08:03:04;20.60;99.90
29577;DHT22;16509;53.862;10.672;2023-08-20T08:05:29;20.70;99.90
29577;DHT22;16509;53.862;10.672;2023-08-20T08:07:55;21.20;99.90
29577;DHT22;16509;53.862;10.672;2023-08-20T08:10:21;21.00;99.90
29577;DHT22;16509;53.862;10.672;2023-08-20T08:12:46;21.10;99.90
29577;DHT22;16509;53.862;10.672;2023-08-20T08:15:13;21.10;99.90
29577;DHT22;16509;53.862;10.672;2023-08-20T08:17:39;21.10;99.90
29577;DHT22;16509;53.862;10.672;2023-08-20T08:20:05;21.90;99.90
29577;DHT22;16509;53.862;10.672;2023-08-20T08:22:30;21.30;99.90
29577;DHT22;16509;53.862;10.672;2023-08-20T08:24:56;21.50;99.90
29577;DHT22;16509;53.862;10.672;2023-08-20T08:27:22;21.80;99.90
29577;DHT22;16509;53.862;10.672;2023-08-20T08:29:47;21.50;99.90
29577;DHT22;16509;53.862;10.672;2023-08-20T08:32:13;22.10;99.90
29577;DHT22;16509;53.862;10.672;2023-08-20T08:34:38;22.20;99.90
29577;DHT22;16509;53.862;10.672;2023-08-20T08:37:04;22.20;99.90
29577;DHT22;16509;53.862;10.672;2023-08-20T08:39:29;22.30;99.90
29577;DHT22;16509;53.862;10.672;2023-08-20T08:42:00;22.90;99.90
29577;DHT22;16509;53.862;10.672;2023-08-20T08:44:33;22.30;99.90
29577;DHT22;16509;53.862;10.672;2023-08-20T08:46:59;22.50;99.90
29577;DHT22;16509;53.862;10.672;2023-08-20T08:49:25;23.20;99.90
29577;DHT22;16509;53.862;10.672;2023-08-20T08:51:53;23.00;99.90
29577;DHT22;16509;53.862;10.672;2023-08-20T08:54:21;24.10;99.90
29577;DHT22;16509;53.862;10.672;2023-08-20T08:56:47;23.10;99.90
29577;DHT22;16509;53.862;10.672;2023-08-20T08:59:12;23.30;99.90
29577;DHT22;16509;53.862;10.672;2023-08-20T09:04:05;23.40;99.90
29577;DHT22;16509;53.862;10.672;2023-08-20T09:06:46;23.50;99.90
29577;DHT22;16509;53.862;10.672;2023-08-20T09:09:12;23.70;99.90
29577;DHT22;16509;53.862;10.672;2023-08-20T09:11:38;23.80;99.90
29577;DHT22;16509;53.862;10.672;2023-08-20T09:14:04;25.60;99.90
29577;DHT22;16509;53.862;10.672;2023-08-20T09:16:30;23.70;99.90
29577;DHT22;16509;53.862;10.672;2023-08-20T09:18:59;23.80;99.90
29577;DHT22;16509;53.862;10.672;2023-08-20T09:21:28;24.00;99.90
29577;DHT22;16509;53.862;10.672;2023-08-20T09:23:55;24.30;99.90
29577;DHT22;16509;53.862;10.672;2023-08-20T09:26:20;23.90;99.90
29577;DHT22;16509;53.862;10.672;2023-08-20T09:28:46;24.00;99.90
29577;DHT22;16509;53.862;10.672;2023-08-20T09:31:13;24.10;99.90
29577;DHT22;16509;53.862;10.672;2023-08-20T09:33:50;24.10;99.90
29577;DHT22;16509;53.862;10.672;2023-08-20T09:36:16;24.20;99.90
29577;DHT22;16509;53.862;10.672;2023-08-20T09:38:41;24.40;99.90
29577;DHT22;16509;53.862;10.672;2023-08-20T09:41:08;24.40;99.90
29577;DHT22;16509;53.862;10.672;2023-08-20T09:43:38;24.60;99.90
29577;DHT22;16509;53.862;10.672;2023-08-20T09:46:04;24.80;99.90
29577;DHT22;16509;53.862;10.672;2023-08-20T09:48:33;25.20;99.90
29577;DHT22;16509;53.862;10.672;2023-08-20T09:50:59;25.20;99.90
29577;DHT22;16509;53.862;10.672;2023-08-20T09:53:34;25.30;99.90
29577;DHT22;16509;53.862;10.672;2023-08-20T09:56:10;25.40;99.90
29577;DHT22;16509;53.862;10.672;2023-08-20T09:58:40;25.50;99.90
29577;DHT22;16509;53.862;10.672;2023-08-20T10:01:08;25.60;99.90
29577;DHT22;16509;53.862;10.672;2023-08-20T10:03:33;25.70;99.90
29577;DHT22;16509;53.862;10.672;2023-08-20T10:06:00;25.80;99.90
29577;DHT22;16509;53.862;10.672;2023-08-20T10:08:27;25.80;99.90
29577;DHT22;16509;53.862;10.672;2023-08-20T10:10:53;26.30;99.90
29577;DHT22;16509;53.862;10.672;2023-08-20T10:13:18;25.80;99.90
29577;DHT22;16509;53.862;10.672;2023-08-20T10:15:44;26.00;99.90
29577;DHT22;16509;53.862;10.672;2023-08-20T10:18:11;26.00;99.90
29577;DHT22;16509;53.862;10.672;2023-08-20T10:20:38;26.20;99.90
29577;DHT22;16509;53.862;10.672;2023-08-20T10:23:05;26.00;99.90
29577;DHT22;16509;53.862;10.672;2023-08-20T10:25:31;26.20;99.90
29577;DHT22;16509;53.862;10.672;2023-08-20T10:28:13;26.90;99.90
29577;DHT22;16509;53.862;10.672;2023-08-20T10:31:13;26.20;99.90
29577;DHT22;16509;53.862;10.672;2023-08-20T10:36:18;26.40;99.90
29577;DHT22;16509;53.862;10.672;2023-08-20T10:38:49;26.30;99.90
29577;DHT22;16509;53.862;10.672;2023-08-20T10:41:15;26.50;99.90
29577;DHT22;16509;53.862;10.672;2023-08-20T10:43:47;26.40;99.90
29577;DHT22;16509;53.862;10.672;2023-08-20T10:46:27;26.50;99.90
29577;DHT22;16509;53.862;10.672;2023-08-20T10:49:02;26.50;99.90
29577;DHT22;16509;53.862;10.672;2023-08-20T10:56:47;26.80;99.90
29577;DHT22;16509;53.862;10.672;2023-08-20T10:59:25;27.40;99.90
29577;DHT22;16509;53.862;10.672;2023-08-20T11:01:53;27.70;99.90
29577;DHT22;16509;53.862;10.672;2023-08-20T11:04:22;27.90;99.90
29577;DHT22;16509;53.862;10.672;2023-08-20T11:06:54;27.90;99.90
29577;DHT22;16509;53.862;10.672;2023-08-20T11:09:21;27.90;99.90
29577;DHT22;16509;53.862;10.672;2023-08-20T11:11:47;27.90;99.90
29577;DHT22;16509;53.862;10.672;2023-08-20T11:14:14;28.00;99.90
29577;DHT22;16509;53.862;10.672;2023-08-20T11:16:41;28.20;99.90
29577;DHT22;16509;53.862;10.672;2023-08-20T11:19:06;28.20;99.90
29577;DHT22;16509;53.862;10.672;2023-08-20T11:21:36;28.20;99.90
29577;DHT22;16509;53.862;10.672;2023-08-20T11:24:03;28.20;99.90
29577;DHT22;16509;53.862;10.672;2023-08-20T11:26:30;28.30;99.90
29577;DHT22;16509;53.862;10.672;2023-08-20T11:28:55;28.40;99.90
29577;DHT22;16509;53.862;10.672;2023-08-20T11:31:21;28.00;99.90
29577;DHT22;16509;53.862;10.672;2023-08-20T11:33:47;27.80;99.90
29577;DHT22;16509;53.862;10.672;2023-08-20T11:36:15;27.80;99.90
29577;DHT22;16509;53.862;10.672;2023-08-20T11:38:50;28.50;99.90
29577;DHT22;16509;53.862;10.672;2023-08-20T11:41:16;28.90;99.90
29577;DHT22;16509;53.862;10.672;2023-08-20T11:43:41;27.30;99.90
29577;DHT22;16509;53.862;10.672;2023-08-20T11:46:16;29.00;99.90
29577;DHT22;16509;53.862;10.672;2023-08-20T11:49:04;29.10;99.90
29577;DHT22;16509;53.862;10.672;2023-08-20T11:51:35;28.40;99.90
29577;DHT22;16509;53.862;10.672;2023-08-20T11:54:02;28.70;99.90
29577;DHT22;16509;53.862;10.672;2023-08-20T11:56:29;28.80;99.90
29577;DHT22;16509;53.862;10.672;2023-08-20T11:58:59;28.60;99.90
29577;DHT22;16509;53.862;10.672;2023-08-20T12:01:26;27.10;99.90
29577;DHT22;16509;53.862;10.672;2023-08-20T12:04:05;28.70;99.90
29577;DHT22;16509;53.862;10.672;2023-08-20T12:06:31;28.50;99.90
29577;DHT22;16509;53.862;10.672;2023-08-20T12:08:58;28.60;99.90
29577;DHT22;16509;53.862;10.672;2023-08-20T12:11:27;28.10;99.90
29577;DHT22;16509;53.862;10.672;2023-08-20T12:13:53;28.30;99.90
29577;DHT22;16509;53.862;10.672;2023-08-20T12:16:21;28.20;99.90
29577;DHT22;16509;53.862;10.672;2023-08-20T12:18:47;29.20;99.90
29577;DHT22;16509;53.862;10.672;2023-08-20T12:21:12;29.50;99.90
29577;DHT22;16509;53.862;10.672;2023-08-20T12:23:38;29.90;99.90
29577;DHT22;16509;53.862;10.672;2023-08-20T12:26:03;29.60;99.90
29577;DHT22;16509;53.862;10.672;2023-08-20T12:28:29;28.30;99.90
29577;DHT22;16509;53.862;10.672;2023-08-20T12:30:54;28.00;99.90
29577;DHT22;16509;53.862;10.672;2023-08-20T12:33:20;28.40;99.90
29577;DHT22;16509;53.862;10.672;2023-08-20T12:35:46;29.00;99.90
29577;DHT22;16509;53.862;10.672;2023-08-20T12:38:12;29.50;99.90
29577;DHT22;16509;53.862;10.672;2023-08-20T12:40:37;29.80;99.90
29577;DHT22;16509;53.862;10.672;2023-08-20T12:43:03;29.30;99.90
29577;DHT22;16509;53.862;10.672;2023-08-20T12:45:29;28.80;99.90
29577;DHT22;16509;53.862;10.672;2023-08-20T12:47:55;28.30;99.90
29577;DHT22;16509;53.862;10.672;2023-08-20T12:50:20;28.00;99.90
29577;DHT22;16509;53.862;10.672;2023-08-20T12:52:45;27.90;99.90
29577;DHT22;16509;53.862;10.672;2023-08-20T12:55:12;27.90;99.90
29577;DHT22;16509;53.862;10.672;2023-08-20T12:57:52;28.10;99.90
29577;DHT22;16509;53.862;10.672;2023-08-20T13:00:19;28.20;99.90
29577;DHT22;16509;53.862;10.672;2023-08-20T13:02:44;28.30;99.90
29577;DHT22;16509;53.862;10.672;2023-08-20T13:05:10;28.00;99.90
29577;DHT22;16509;53.862;10.672;2023-08-20T13:07:36;28.00;99.90
29577;DHT22;16509;53.862;10.672;2023-08-20T13:10:02;27.80;99.90
29577;DHT22;16509;53.862;10.672;2023-08-20T13:12:29;27.90;99.90
29577;DHT22;16509;53.862;10.672;2023-08-20T13:14:57;27.90;99.90
29577;DHT22;16509;53.862;10.672;2023-08-20T13:17:23;28.00;99.90
29577;DHT22;16509;53.862;10.672;2023-08-20T13:19:48;28.50;99.90
29577;DHT22;16509;53.862;10.672;2023-08-20T13:22:14;28.70;99.90
29577;DHT22;16509;53.862;10.672;2023-08-20T13:24:39;29.40;99.90
29577;DHT22;16509;53.862;10.672;2023-08-20T13:27:05;29.50;99.90
29577;DHT22;16509;53.862;10.672;2023-08-20T13:29:31;29.20;99.90
29577;DHT22;16509;53.862;10.672;2023-08-20T13:31:56;28.90;99.90
29577;DHT22;16509;53.862;10.672;2023-08-20T13:34:22;28.70;99.90
29577;DHT22;16509;53.862;10.672;2023-08-20T13:36:47;28.90;99.90
29577;DHT22;16509;53.862;10.672;2023-08-20T13:39:13;29.30;99.90
29577;DHT22;16509;53.862;10.672;2023-08-20T13:41:39;29.30;99.90
29577;DHT22;16509;53.862;10.672;2023-08-20T13:44:06;28.50;99.90
29577;DHT22;16509;53.862;10.672;2023-08-20T13:46:32;27.90;99.90
29577;DHT22;16509;53.862;10.672;2023-08-20T13:48:57;27.50;99.90
29577;DHT22;16509;53.862;10.672;2023-08-20T13:51:23;27.20;99.90
29577;DHT22;16509;53.862;10.672;2023-08-20T13:53:48;26.90;99.90
29577;DHT22;16509;53.862;10.672;2023-08-20T13:56:14;26.90;99.90
29577;DHT22;16509;53.862;10.672;2023-08-20T13:58:39;26.90;99.90
29577;DHT22;16509;53.862;10.672;2023-08-20T14:01:05;26.70;99.90
29577;DHT22;16509;53.862;10.672;2023-08-20T14:03:31;26.60;99.90
29577;DHT22;16509;53.862;10.672;2023-08-20T14:05:56;26.90;99.90
29577;DHT22;16509;53.862;10.672;2023-08-20T14:08:22;26.40;99.90
29577;DHT22;16509;53.862;10.672;2023-08-20T14:10:47;26.40;99.90
29577;DHT22;16509;53.862;10.672;2023-08-20T14:13:13;26.40;99.90
29577;DHT22;16509;53.862;10.672;2023-08-20T14:15:38;26.30;99.90
29577;DHT22;16509;53.862;10.672;2023-08-20T14:18:04;26.10;99.90
29577;DHT22;16509;53.862;10.672;2023-08-20T14:20:30;26.40;99.90
29577;DHT22;16509;53.862;10.672;2023-08-20T14:22:55;26.20;99.90
29577;DHT22;16509;53.862;10.672;2023-08-20T14:25:21;26.80;99.90
29577;DHT22;16509;53.862;10.672;2023-08-20T14:27:46;26.10;99.90
29577;DHT22;16509;53.862;10.672;2023-08-20T14:30:12;26.10;99.90
29577;DHT22;16509;53.862;10.672;2023-08-20T14:32:37;26.00;99.90
29577;DHT22;16509;53.862;10.672;2023-08-20T14:35:03;26.20;99.90
29577;DHT22;16509;53.862;10.672;2023-08-20T14:37:29;25.90;99.90
29577;DHT22;16509;53.862;10.672;2023-08-20T14:39:56;26.00;99.90
29577;DHT22;16509;53.862;10.672;2023-08-20T14:42:22;26.00;99.90
29577;DHT22;16509;53.862;10.672;2023-08-20T14:44:47;26.00;99.90
29577;DHT22;16509;53.862;10.672;2023-08-20T14:47:13;26.00;99.90
29577;DHT22;16509;53.862;10.672;2023-08-20T14:49:39;25.90;99.90
29577;DHT22;16509;53.862;10.672;2023-08-20T14:52:04;25.80;99.90
29577;DHT22;16509;53.862;10.672;2023-08-20T14:54:30;25.80;99.90
29577;DHT22;16509;53.862;10.672;2023-08-20T14:56:55;25.70;99.90
29577;DHT22;16509;53.862;10.672;2023-08-20T14:59:21;25.80;99.90
29577;DHT22;16509;53.862;10.672;2023-08-20T15:01:46;25.60;99.90
29577;DHT22;16509;53.862;10.672;2023-08-20T15:04:12;25.80;99.90
29577;DHT22;16509;53.862;10.672;2023-08-20T15:06:38;26.50;99.90
29577;DHT22;16509;53.862;10.672;2023-08-20T15:09:03;25.80;99.90
29577;DHT22;16509;53.862;10.672;2023-08-20T15:11:29;25.80;99.90
29577;DHT22;16509;53.862;10.672;2023-08-20T15:13:54;25.80;99.90
29577;DHT22;16509;53.862;10.672;2023-08-20T15:16:20;25.80;99.90
29577;DHT22;16509;53.862;10.672;2023-08-20T15:18:46;25.80;99.90
29577;DHT22;16509;53.862;10.672;2023-08-20T15:21:11;25.80;99.90
29577;DHT22;16509;53.862;10.672;2023-08-20T15:23:37;25.70;99.90
29577;DHT22;16509;53.862;10.672;2023-08-20T15:26:03;25.60;99.90
29577;DHT22;16509;53.862;10.672;2023-08-20T15:28:30;25.40;99.90
29577;DHT22;16509;53.862;10.672;2023-08-20T15:30:56;25.40;99.90